sensor_id;sensor_type;location;lat;lon;timestamp;temperature;humidity
31619;DHT22;18230;51.502;7.108;2022-10-17T00:04:02;16.10;99.90
31619;DHT22;18230;51.502;7.108;2022-10-17T00:09:03;16.00;99.90
31619;DHT22;18230;51.502;7.108;2022-10-17T00:14:03;16.00;99.90
31619;DHT22;18230;51.502;7.108;2022-10-17T00:19:05;15.90;99.90
31619;DHT22;18230;51.502;7.108;2022-10-17T00:24:06;15.90;99.90
31619;DHT22;18230;51.502;7.108;2022-10-17T00:29:07;15.80;99.90
31619;DHT22;18230;51.502;7.108;2022-10-17T00:34:08;15.80;99.90
31619;DHT22;18230;51.502;7.108;2022-10-17T00:39:08;15.80;99.90
31619;DHT22;18230;51.502;7.108;2022-10-17T00:49:31;15.70;99.90
31619;DHT22;18230;51.502;7.108;2022-10-17T00:54:37;15.70;99.90
31619;DHT22;18230;51.502;7.108;2022-10-17T00:59:39;15.70;99.90
31619;DHT22;18230;51.502;7.108;2022-10-17T01:04:44;15.70;99.90
31619;DHT22;18230;51.502;7.108;2022-10-17T01:09:46;15.70;99.90
31619;DHT22;18230;51.502;7.108;2022-10-17T01:25:46;15.80;99.90
31619;DHT22;18230;51.502;7.108;2022-10-17T01:36:54;15.80;99.90
31619;DHT22;18230;51.502;7.108;2022-10-17T01:48:02;16.00;99.90
31619;DHT22;18230;51.502;7.108;2022-10-17T01:53:31;16.00;99.90
31619;DHT22;18230;51.502;7.108;2022-10-17T01:58:37;16.00;99.90
31619;DHT22;18230;51.502;7.108;2022-10-17T02:03:41;16.10;99.90
31619;DHT22;18230;51.502;7.108;2022-10-17T02:08:46;16.10;99.90
31619;DHT22;18230;51.502;7.108;2022-10-17T02:19:37;16.20;99.90
31619;DHT22;18230;51.502;7.108;2022-10-17T02:29:48;16.20;99.90
31619;DHT22;18230;51.502;7.108;2022-10-17T02:34:51;16.30;99.90
31619;DHT22;18230;51.502;7.108;2022-10-17T02:39:55;16.30;99.90
31619;DHT22;18230;51.502;7.108;2022-10-17T02:44:59;16.30;99.90
31619;DHT22;18230;51.502;7.108;2022-10-17T02:50:01;16.30;99.90
31619;DHT22;18230;51.502;7.108;2022-10-17T02:55:12;16.40;99.90
31619;DHT22;18230;51.502;7.108;2022-10-17T03:00:16;16.30;99.90
31619;DHT22;18230;51.502;7.108;2022-10-17T03:05:26;16.40;99.90
31619;DHT22;18230;51.502;7.108;2022-10-17T03:10:27;16.40;99.90
31619;DHT22;18230;51.502;7.108;2022-10-17T03:15:28;16.40;99.90
31619;DHT22;18230;51.502;7.108;2022-10-17T03:20:28;16.40;99.90
31619;DHT22;18230;51.502;7.108;2022-10-17T03:25:29;16.40;99.90
31619;DHT22;18230;51.502;7.108;2022-10-17T03:30:30;16.40;99.90
31619;DHT22;18230;51.502;7.108;2022-10-17T03:35:31;16.40;99.90
31619;DHT22;18230;51.502;7.108;2022-10-17T03:40:32;16.50;99.90
31619;DHT22;18230;51.502;7.108;2022-10-17T03:45:33;16.50;99.90
31619;DHT22;18230;51.502;7.108;2022-10-17T03:50:33;16.60;99.90
31619;DHT22;18230;51.502;7.108;2022-10-17T03:55:34;16.70;99.90
31619;DHT22;18230;51.502;7.108;2022-10-17T04:00:35;16.70;99.90
31619;DHT22;18230;51.502;7.108;2022-10-17T04:05:36;16.80;99.90
31619;DHT22;18230;51.502;7.108;2022-10-17T04:10:36;16.80;99.90
31619;DHT22;18230;51.502;7.108;2022-10-17T04:15:37;16.90;99.90
31619;DHT22;18230;51.502;7.108;2022-10-17T04:20:38;16.90;99.90
31619;DHT22;18230;51.502;7.108;2022-10-17T04:25:38;16.90;99.90
31619;DHT22;18230;51.502;7.108;2022-10-17T04:42:02;16.80;99.90
31619;DHT22;18230;51.502;7.108;2022-10-17T05:15:40;17.00;99.90
31619;DHT22;18230;51.502;7.108;2022-10-17T05:20:41;17.10;99.90
31619;DHT22;18230;51.502;7.108;2022-10-17T05:25:44;17.10;99.90
31619;DHT22;18230;51.502;7.108;2022-10-17T05:30:52;17.20;99.90
31619;DHT22;18230;51.502;7.108;2022-10-17T05:35:56;17.20;99.90
31619;DHT22;18230;51.502;7.108;2022-10-17T05:40:58;17.20;99.90
31619;DHT22;18230;51.502;7.108;2022-10-17T05:46:03;17.30;99.90
31619;DHT22;18230;51.502;7.108;2022-10-17T05:51:08;17.30;99.90
31619;DHT22;18230;51.502;7.108;2022-10-17T05:56:11;17.30;99.90
31619;DHT22;18230;51.502;7.108;2022-10-17T06:01:13;17.40;99.90
31619;DHT22;18230;51.502;7.108;2022-10-17T06:06:14;17.40;99.90
31619;DHT22;18230;51.502;7.108;2022-10-17T06:11:15;17.40;99.90
31619;DHT22;18230;51.502;7.108;2022-10-17T06:16:25;17.40;99.90
31619;DHT22;18230;51.502;7.108;2022-10-17T06:21:26;17.40;99.90
31619;DHT22;18230;51.502;7.108;2022-10-17T06:26:35;17.50;99.90
31619;DHT22;18230;51.502;7.108;2022-10-17T06:31:41;17.50;99.90
31619;DHT22;18230;51.502;7.108;2022-10-17T06:42:26;17.60;99.90
31619;DHT22;18230;51.502;7.108;2022-10-17T06:47:35;17.60;99.90
31619;DHT22;18230;51.502;7.108;2022-10-17T06:52:36;17.70;99.90
31619;DHT22;18230;51.502;7.108;2022-10-17T06:57:53;17.70;99.90
31619;DHT22;18230;51.502;7.108;2022-10-17T07:02:54;17.80;99.90
31619;DHT22;18230;51.502;7.108;2022-10-17T07:07:55;17.90;99.90
31619;DHT22;18230;51.502;7.108;2022-10-17T07:13:02;18.00;99.90
31619;DHT22;18230;51.502;7.108;2022-10-17T07:18:06;18.00;99.90
31619;DHT22;18230;51.502;7.108;2022-10-17T07:23:10;18.10;99.90
31619;DHT22;18230;51.502;7.108;2022-10-17T07:28:11;18.20;99.90
31619;DHT22;18230;51.502;7.108;2022-10-17T07:33:12;18.40;99.90
31619;DHT22;18230;51.502;7.108;2022-10-17T07:38:13;18.50;99.90
31619;DHT22;18230;51.502;7.108;2022-10-17T07:43:14;18.70;99.90
31619;DHT22;18230;51.502;7.108;2022-10-17T07:48:15;18.90;99.90
31619;DHT22;18230;51.502;7.108;2022-10-17T07:53:16;19.00;99.90
31619;DHT22;18230;51.502;7.108;2022-10-17T07:58:17;19.00;99.90
31619;DHT22;18230;51.502;7.108;2022-10-17T08:03:18;19.00;99.90
31619;DHT22;18230;51.502;7.108;2022-10-17T08:08:19;19.10;99.90
31619;DHT22;18230;51.502;7.108;2022-10-17T08:13:21;19.20;99.90
31619;DHT22;18230;51.502;7.108;2022-10-17T08:18:21;19.30;99.90
31619;DHT22;18230;51.502;7.108;2022-10-17T08:23:22;19.40;99.90
31619;DHT22;18230;51.502;7.108;2022-10-17T08:28:23;19.60;99.90
31619;DHT22;18230;51.502;7.108;2022-10-17T08:33:24;19.70;99.90
31619;DHT22;18230;51.502;7.108;2022-10-17T08:38:25;19.90;99.90
31619;DHT22;18230;51.502;7.108;2022-10-17T08:43:57;20.00;99.90
31619;DHT22;18230;51.502;7.108;2022-10-17T08:49:01;20.20;99.90
31619;DHT22;18230;51.502;7.108;2022-10-17T08:54:17;20.40;99.90
31619;DHT22;18230;51.502;7.108;2022-10-17T08:59:27;20.60;99.90
31619;DHT22;18230;51.502;7.108;2022-10-17T09:10:20;20.70;99.90
31619;DHT22;18230;51.502;7.108;2022-10-17T09:15:53;20.80;99.90
31619;DHT22;18230;51.502;7.108;2022-10-17T09:21:22;20.80;99.90
31619;DHT22;18230;51.502;7.108;2022-10-17T09:26:49;20.90;99.90
31619;DHT22;18230;51.502;7.108;2022-10-17T09:37:30;21.00;99.90
31619;DHT22;18230;51.502;7.108;2022-10-17T09:42:33;21.20;99.90
31619;DHT22;18230;51.502;7.108;2022-10-17T09:47:42;21.20;99.90
31619;DHT22;18230;51.502;7.108;2022-10-17T09:52:49;21.30;99.90
31619;DHT22;18230;51.502;7.108;2022-10-17T09:57:56;21.30;99.90
31619;DHT22;18230;51.502;7.108;2022-10-17T10:03:09;21.20;99.90
31619;DHT22;18230;51.502;7.108;2022-10-17T10:08:17;21.10;99.90
31619;DHT22;18230;51.502;7.108;2022-10-17T10:13:18;21.10;99.90
31619;DHT22;18230;51.502;7.108;2022-10-17T10:19:06;21.00;99.90
31619;DHT22;18230;51.502;7.108;2022-10-17T10:24:11;21.00;99.90
31619;DHT22;18230;51.502;7.108;2022-10-17T11:03:07;21.20;99.90
31619;DHT22;18230;51.502;7.108;2022-10-17T11:08:36;21.20;99.90
31619;DHT22;18230;51.502;7.108;2022-10-17T11:20:14;21.00;99.90
31619;DHT22;18230;51.502;7.108;2022-10-17T11:31:16;20.90;99.90
31619;DHT22;18230;51.502;7.108;2022-10-17T12:37:03;21.00;99.90
31619;DHT22;18230;51.502;7.108;2022-10-17T12:42:49;21.00;99.90
31619;DHT22;18230;51.502;7.108;2022-10-17T12:49:02;20.90;99.90
31619;DHT22;18230;51.502;7.108;2022-10-17T12:54:44;20.90;99.90
31619;DHT22;18230;51.502;7.108;2022-10-17T13:12:17;20.70;99.90
31619;DHT22;18230;51.502;7.108;2022-10-17T13:17:26;20.70;99.90
31619;DHT22;18230;51.502;7.108;2022-10-17T13:22:30;20.80;99.90
31619;DHT22;18230;51.502;7.108;2022-10-17T13:27:35;20.90;99.90
31619;DHT22;18230;51.502;7.108;2022-10-17T13:32:38;20.70;99.90
31619;DHT22;18230;51.502;7.108;2022-10-17T13:37:42;20.80;99.90
31619;DHT22;18230;51.502;7.108;2022-10-17T13:42:45;20.70;99.90
31619;DHT22;18230;51.502;7.108;2022-10-17T13:47:46;20.60;99.90
31619;DHT22;18230;51.502;7.108;2022-10-17T13:52:47;20.60;99.90
31619;DHT22;18230;51.502;7.108;2022-10-17T13:57:48;20.60;99.90
31619;DHT22;18230;51.502;7.108;2022-10-17T14:02:51;20.60;99.90
31619;DHT22;18230;51.502;7.108;2022-10-17T14:24:57;20.60;99.90
31619;DHT22;18230;51.502;7.108;2022-10-17T14:47:59;20.50;99.90
31619;DHT22;18230;51.502;7.108;2022-10-17T14:53:19;20.50;99.90
31619;DHT22;18230;51.502;7.108;2022-10-17T15:05:48;20.40;99.90
31619;DHT22;18230;51.502;7.108;2022-10-17T15:11:31;20.40;99.90
31619;DHT22;18230;51.502;7.108;2022-10-17T15:16:50;20.30;99.90
31619;DHT22;18230;51.502;7.108;2022-10-17T15:21:52;20.30;99.90
31619;DHT22;18230;51.502;7.108;2022-10-17T15:27:19;20.30;99.90
31619;DHT22;18230;51.502;7.108;2022-10-17T15:32:35;20.20;99.90
31619;DHT22;18230;51.502;7.108;2022-10-17T15:37:38;20.10;99.90
31619;DHT22;18230;51.502;7.108;2022-10-17T15:42:42;20.10;99.90
31619;DHT22;18230;51.502;7.108;2022-10-17T15:47:55;20.00;99.90
31619;DHT22;18230;51.502;7.108;2022-10-17T15:53:10;19.90;99.90
31619;DHT22;18230;51.502;7.108;2022-10-17T15:58:20;19.80;99.90
31619;DHT22;18230;51.502;7.108;2022-10-17T16:03:21;19.80;99.90
31619;DHT22;18230;51.502;7.108;2022-10-17T16:08:24;19.70;99.90
31619;DHT22;18230;51.502;7.108;2022-10-17T16:13:28;19.60;99.90
31619;DHT22;18230;51.502;7.108;2022-10-17T16:18:37;19.60;99.90
31619;DHT22;18230;51.502;7.108;2022-10-17T16:23:41;19.50;99.90
31619;DHT22;18230;51.502;7.108;2022-10-17T16:28:58;19.30;99.90
31619;DHT22;18230;51.502;7.108;2022-10-17T16:34:12;19.30;99.90
31619;DHT22;18230;51.502;7.108;2022-10-17T16:39:14;19.30;99.90
31619;DHT22;18230;51.502;7.108;2022-10-17T16:44:22;19.20;99.90
31619;DHT22;18230;51.502;7.108;2022-10-17T16:49:34;19.20;99.90
31619;DHT22;18230;51.502;7.108;2022-10-17T16:54:53;19.20;99.90
31619;DHT22;18230;51.502;7.108;2022-10-17T17:00:00;19.20;99.90
31619;DHT22;18230;51.502;7.108;2022-10-17T17:05:40;19.10;99.90
31619;DHT22;18230;51.502;7.108;2022-10-17T17:16:39;18.90;99.90
31619;DHT22;18230;51.502;7.108;2022-10-17T17:21:46;18.80;99.90
31619;DHT22;18230;51.502;7.108;2022-10-17T17:33:04;18.70;99.90
31619;DHT22;18230;51.502;7.108;2022-10-17T17:38:07;18.70;99.90
31619;DHT22;18230;51.502;7.108;2022-10-17T17:43:13;18.60;99.90
31619;DHT22;18230;51.502;7.108;2022-10-17T17:48:17;18.50;99.90
31619;DHT22;18230;51.502;7.108;2022-10-17T17:53:45;18.50;99.90
31619;DHT22;18230;51.502;7.108;2022-10-17T17:58:51;18.50;99.90
31619;DHT22;18230;51.502;7.108;2022-10-17T18:03:53;18.50;99.90
31619;DHT22;18230;51.502;7.108;2022-10-17T18:08:57;18.50;99.90
31619;DHT22;18230;51.502;7.108;2022-10-17T18:14:00;18.50;99.90
31619;DHT22;18230;51.502;7.108;2022-10-17T18:19:03;18.60;99.90
31619;DHT22;18230;51.502;7.108;2022-10-17T18:24:05;18.60;99.90
31619;DHT22;18230;51.502;7.108;2022-10-17T18:29:06;18.60;99.90
31619;DHT22;18230;51.502;7.108;2022-10-17T18:34:07;18.60;99.90
31619;DHT22;18230;51.502;7.108;2022-10-17T18:39:07;18.60;99.90
31619;DHT22;18230;51.502;7.108;2022-10-17T18:44:08;18.60;99.90
31619;DHT22;18230;51.502;7.108;2022-10-17T18:49:14;18.50;99.90
31619;DHT22;18230;51.502;7.108;2022-10-17T18:54:17;18.50;99.90
31619;DHT22;18230;51.502;7.108;2022-10-17T18:59:20;18.40;99.90
31619;DHT22;18230;51.502;7.108;2022-10-17T19:04:21;18.40;99.90
31619;DHT22;18230;51.502;7.108;2022-10-17T19:09:22;18.40;99.90
31619;DHT22;18230;51.502;7.108;2022-10-17T19:14:22;18.40;99.90
31619;DHT22;18230;51.502;7.108;2022-10-17T19:19:24;18.30;99.90
31619;DHT22;18230;51.502;7.108;2022-10-17T19:24:26;18.30;99.90
31619;DHT22;18230;51.502;7.108;2022-10-17T19:29:28;18.20;99.90
31619;DHT22;18230;51.502;7.108;2022-10-17T19:34:31;18.30;99.90
31619;DHT22;18230;51.502;7.108;2022-10-17T19:39:31;18.30;99.90
31619;DHT22;18230;51.502;7.108;2022-10-17T19:44:32;18.30;99.90
31619;DHT22;18230;51.502;7.108;2022-10-17T19:49:33;18.30;99.90
31619;DHT22;18230;51.502;7.108;2022-10-17T19:54:34;18.30;99.90
31619;DHT22;18230;51.502;7.108;2022-10-17T19:59:34;18.20;99.90
31619;DHT22;18230;51.502;7.108;2022-10-17T20:04:35;18.20;99.90
31619;DHT22;18230;51.502;7.108;2022-10-17T20:09:36;18.20;99.90
31619;DHT22;18230;51.502;7.108;2022-10-17T20:14:36;18.10;99.90
31619;DHT22;18230;51.502;7.108;2022-10-17T20:19:37;18.00;99.90
31619;DHT22;18230;51.502;7.108;2022-10-17T20:24:37;18.00;99.90
31619;DHT22;18230;51.502;7.108;2022-10-17T20:29:38;17.90;99.90
31619;DHT22;18230;51.502;7.108;2022-10-17T20:34:39;17.90;99.90
31619;DHT22;18230;51.502;7.108;2022-10-17T20:39:41;17.90;99.90
31619;DHT22;18230;51.502;7.108;2022-10-17T20:44:42;17.90;99.90
31619;DHT22;18230;51.502;7.108;2022-10-17T20:49:42;17.90;99.90
31619;DHT22;18230;51.502;7.108;2022-10-17T20:54:43;17.80;99.90
31619;DHT22;18230;51.502;7.108;2022-10-17T20:59:44;17.70;99.90
31619;DHT22;18230;51.502;7.108;2022-10-17T21:04:45;17.80;99.90
31619;DHT22;18230;51.502;7.108;2022-10-17T21:09:47;17.80;99.90
31619;DHT22;18230;51.502;7.108;2022-10-17T21:14:48;17.70;99.90
31619;DHT22;18230;51.502;7.108;2022-10-17T21:19:49;17.70;99.90
31619;DHT22;18230;51.502;7.108;2022-10-17T21:24:50;17.70;99.90
31619;DHT22;18230;51.502;7.108;2022-10-17T21:29:50;17.60;99.90
31619;DHT22;18230;51.502;7.108;2022-10-17T21:34:52;17.60;99.90
31619;DHT22;18230;51.502;7.108;2022-10-17T21:39:54;17.50;99.90
31619;DHT22;18230;51.502;7.108;2022-10-17T21:44:56;17.40;99.90
31619;DHT22;18230;51.502;7.108;2022-10-17T21:50:17;17.40;99.90
31619;DHT22;18230;51.502;7.108;2022-10-17T21:55:20;17.30;99.90
31619;DHT22;18230;51.502;7.108;2022-10-17T22:00:21;17.30;99.90
31619;DHT22;18230;51.502;7.108;2022-10-17T22:05:22;17.20;99.90
31619;DHT22;18230;51.502;7.108;2022-10-17T22:10:23;17.20;99.90
31619;DHT22;18230;51.502;7.108;2022-10-17T22:15:25;17.20;99.90
31619;DHT22;18230;51.502;7.108;2022-10-17T22:20:26;17.20;99.90
31619;DHT22;18230;51.502;7.108;2022-10-17T22:25:28;17.10;99.90
31619;DHT22;18230;51.502;7.108;2022-10-17T22:30:29;17.10;99.90
31619;DHT22;18230;51.502;7.108;2022-10-17T22:35:29;17.10;99.90
31619;DHT22;18230;51.502;7.108;2022-10-17T22:40:30;17.10;99.90
31619;DHT22;18230;51.502;7.108;2022-10-17T22:45:31;17.10;99.90
31619;DHT22;18230;51.502;7.108;2022-10-17T22:50:31;17.10;99.90
31619;DHT22;18230;51.502;7.108;2022-10-17T22:55:32;17.00;99.90
31619;DHT22;18230;51.502;7.108;2022-10-17T23:00:33;17.00;99.90
31619;DHT22;18230;51.502;7.108;2022-10-17T23:05:33;16.90;99.90
31619;DHT22;18230;51.502;7.108;2022-10-17T23:10:34;17.00;99.90
31619;DHT22;18230;51.502;7.108;2022-10-17T23:15:35;17.00;99.90
31619;DHT22;18230;51.502;7.108;2022-10-17T23:20:36;17.00;99.90
31619;DHT22;18230;51.502;7.108;2022-10-17T23:25:38;17.00;99.90
31619;DHT22;18230;51.502;7.108;2022-10-17T23:30:39;16.90;99.90
31619;DHT22;18230;51.502;7.108;2022-10-17T23:35:40;16.90;99.90
31619;DHT22;18230;51.502;7.108;2022-10-17T23:40:41;17.00;99.90
31619;DHT22;18230;51.502;7.108;2022-10-17T23:45:42;17.00;99.90
31619;DHT22;18230;51.502;7.108;2022-10-17T23:50:42;16.90;99.90
31619;DHT22;18230;51.502;7.108;2022-10-17T23:55:43;16.90;99.90
